createdAt,value
2019-05-21T00:01:08.943Z,131.07
2019-05-21T00:03:36.771Z,115.50
2019-05-21T00:06:04.657Z,122.28
2019-05-21T00:08:32.859Z,136.75
2019-05-21T00:11:00.847Z,117.87
2019-05-21T00:13:28.709Z,126.35
2019-05-21T00:15:56.734Z,104.63
2019-05-21T00:18:24.566Z,128.35
2019-05-21T00:20:52.900Z,115.15
2019-05-21T00:23:21.037Z,105.55
2019-05-21T00:25:49.548Z,101.38
2019-05-21T00:28:38.563Z,90.55
2019-05-21T00:32:01.383Z,89.80
2019-05-21T00:35:26.285Z,95.00
2019-05-21T00:38:51.934Z,96.15
2019-05-21T00:42:02.105Z,85.30
2019-05-21T00:44:36.951Z,82.82
2019-05-21T00:47:07.815Z,87.45
2019-05-21T00:49:36.032Z,91.47
2019-05-21T00:52:08.441Z,83.40
2019-05-21T00:54:33.992Z,84.40
2019-05-21T00:57:02.161Z,80.57
2019-05-21T00:59:30.084Z,75.30
2019-05-21T01:01:57.985Z,87.92
2019-05-21T01:04:26.067Z,78.83
2019-05-21T01:06:54.659Z,77.65
2019-05-21T01:09:22.628Z,81.15
2019-05-21T01:11:50.572Z,83.92
2019-05-21T01:14:18.620Z,83.72
2019-05-21T01:16:46.428Z,77.25
2019-05-21T01:19:14.426Z,80.07
2019-05-21T01:21:42.786Z,78.57
2019-05-21T01:24:11.091Z,78.40
2019-05-21T01:26:39.557Z,83.75
2019-05-21T01:29:07.538Z,81.02
2019-05-21T01:31:37.138Z,99.52
2019-05-21T01:34:11.692Z,80.12
2019-05-21T01:36:40.349Z,66.37
2019-05-21T01:39:08.416Z,75.28
2019-05-21T01:41:36.272Z,73.67
2019-05-21T01:44:04.475Z,73.40
2019-05-21T01:46:32.549Z,71.95
2019-05-21T01:49:00.910Z,66.05
2019-05-21T01:51:28.798Z,78.15
2019-05-21T01:53:56.731Z,68.85
2019-05-21T01:56:24.591Z,67.00
2019-05-21T01:58:52.763Z,79.87
2019-05-21T02:01:20.601Z,66.97
2019-05-21T02:03:48.556Z,69.85
2019-05-21T02:06:16.538Z,65.67
2019-05-21T02:08:44.684Z,59.63
2019-05-21T02:11:12.576Z,63.85
2019-05-21T02:13:40.438Z,59.25
2019-05-21T02:16:08.466Z,58.40
2019-05-21T02:18:36.468Z,48.45
2019-05-21T02:21:04.430Z,49.83
2019-05-21T02:23:32.407Z,55.78
2019-05-21T02:26:00.613Z,47.98
2019-05-21T02:28:28.677Z,43.63
2019-05-21T02:30:57.117Z,44.53
2019-05-21T02:33:25.232Z,48.73
2019-05-21T02:35:54.863Z,51.70
2019-05-21T02:38:22.966Z,43.73
2019-05-21T02:40:50.833Z,43.55
2019-05-21T02:43:18.805Z,45.75
2019-05-21T02:45:46.876Z,38.83
2019-05-21T02:48:15.304Z,43.52
2019-05-21T02:50:43.403Z,40.28
2019-05-21T02:53:11.362Z,41.45
2019-05-21T02:55:39.237Z,41.55
2019-05-21T02:58:07.205Z,37.35
2019-05-21T03:01:09.633Z,41.95
2019-05-21T03:03:37.724Z,42.85
2019-05-21T03:06:13.776Z,41.77
2019-05-21T03:08:36.051Z,40.45
2019-05-21T03:11:04.049Z,39.15
2019-05-21T03:13:31.915Z,35.25
2019-05-21T03:16:00.283Z,35.63
2019-05-21T03:18:28.224Z,34.85
2019-05-21T03:20:56.349Z,30.05
2019-05-21T03:23:24.256Z,33.63
2019-05-21T03:25:52.265Z,29.60
2019-05-21T03:28:20.129Z,29.80
2019-05-21T03:30:48.054Z,26.42
2019-05-21T03:33:16.128Z,33.35
2019-05-21T03:35:44.064Z,32.78
2019-05-21T03:38:12.005Z,29.98
2019-05-21T03:40:39.924Z,28.62
2019-05-21T03:43:07.797Z,29.92
2019-05-21T03:45:35.784Z,30.62
2019-05-21T03:48:03.857Z,27.65
2019-05-21T03:50:32.167Z,27.77
2019-05-21T03:53:00.111Z,31.50
2019-05-21T03:55:28.168Z,28.80
2019-05-21T03:57:56.248Z,29.42
2019-05-21T04:00:24.277Z,24.35
2019-05-21T04:02:52.685Z,25.97
2019-05-21T04:05:25.823Z,23.18
2019-05-21T04:07:54.420Z,28.52
2019-05-21T04:10:23.610Z,29.90
2019-05-21T04:13:07.453Z,29.57
2019-05-21T04:15:58.672Z,27.45
2019-05-21T04:18:35.593Z,30.65
2019-05-21T04:21:03.521Z,25.68
2019-05-21T04:23:31.399Z,26.62
2019-05-21T04:25:59.577Z,25.62
2019-05-21T04:28:27.835Z,23.62
2019-05-21T04:30:56.195Z,26.68
2019-05-21T04:33:24.141Z,22.87
2019-05-21T04:35:52.631Z,25.97
2019-05-21T04:38:20.593Z,28.12
2019-05-21T04:40:48.617Z,26.85
2019-05-21T04:43:16.523Z,26.02
2019-05-21T04:45:44.370Z,28.45
2019-05-21T04:48:12.442Z,21.07
2019-05-21T04:50:40.754Z,25.80
2019-05-21T04:53:08.690Z,25.68
2019-05-21T04:55:36.685Z,26.30
2019-05-21T04:58:04.865Z,23.67
2019-05-21T05:00:34.472Z,30.62
2019-05-21T05:03:02.350Z,23.35
2019-05-21T05:05:30.817Z,29.05
2019-05-21T05:07:58.960Z,28.42
2019-05-21T05:10:27.103Z,28.35
2019-05-21T05:12:55.031Z,25.43
2019-05-21T05:15:23.114Z,30.30
2019-05-21T05:17:51.125Z,26.12
2019-05-21T05:20:19.282Z,29.80
2019-05-21T05:22:47.201Z,23.40
2019-05-21T05:25:15.148Z,31.62
2019-05-21T05:27:43.109Z,27.90
2019-05-21T05:30:11.610Z,35.38
2019-05-21T05:32:39.808Z,37.30
2019-05-21T05:35:08.142Z,31.37
2019-05-21T05:37:44.120Z,26.33
2019-05-21T05:40:06.672Z,32.33
2019-05-21T05:42:34.673Z,29.40
2019-05-21T05:45:02.904Z,33.70
2019-05-21T05:47:32.872Z,25.15
2019-05-21T05:50:08.021Z,26.77
2019-05-21T05:52:35.963Z,26.25
2019-05-21T05:55:04.170Z,26.75
2019-05-21T05:57:32.538Z,28.67
2019-05-21T06:00:00.675Z,28.20
2019-05-21T06:02:28.759Z,27.85
2019-05-21T06:04:56.799Z,28.23
2019-05-21T06:07:24.992Z,27.00
2019-05-21T06:09:53.067Z,24.45
2019-05-21T06:12:21.846Z,23.25
2019-05-21T06:14:49.784Z,28.50
2019-05-21T06:17:17.814Z,28.52
2019-05-21T06:19:54.762Z,21.73
2019-05-21T06:22:22.892Z,24.57
2019-05-21T06:24:51.244Z,24.87
2019-05-21T06:27:19.283Z,27.80
2019-05-21T06:29:47.377Z,24.80
2019-05-21T06:32:15.443Z,19.27
2019-05-21T06:34:44.023Z,21.93
2019-05-21T06:37:11.972Z,18.95
2019-05-21T06:39:44.069Z,19.17
2019-05-21T06:42:11.948Z,19.02
2019-05-21T06:44:39.866Z,17.82
2019-05-21T06:47:07.821Z,15.28
2019-05-21T06:49:35.918Z,17.10
2019-05-21T06:52:03.868Z,19.25
2019-05-21T06:54:32.011Z,19.05
2019-05-21T06:57:00.360Z,16.42
2019-05-21T06:59:28.314Z,16.90
2019-05-21T07:01:56.380Z,11.85
2019-05-21T07:04:24.440Z,12.55
2019-05-21T07:06:52.342Z,14.80
2019-05-21T07:09:20.214Z,16.32
2019-05-21T07:11:50.624Z,17.12
2019-05-21T07:14:18.771Z,14.28
2019-05-21T07:16:46.770Z,11.95
2019-05-21T07:19:14.870Z,14.05
2019-05-21T07:21:42.951Z,15.00
2019-05-21T07:24:11.180Z,10.63
2019-05-21T07:26:39.666Z,10.82
2019-05-21T07:29:07.827Z,12.10
2019-05-21T07:31:36.438Z,11.68
2019-05-21T07:34:04.672Z,10.50
2019-05-21T07:36:34.431Z,12.78
2019-05-21T07:39:04.494Z,11.73
2019-05-21T07:41:32.408Z,9.75
2019-05-21T07:44:00.352Z,8.00
2019-05-21T07:46:28.648Z,8.00
2019-05-21T07:48:57.090Z,11.80
2019-05-21T07:51:25.059Z,10.88
2019-05-21T07:53:53.051Z,9.35
2019-05-21T07:56:21.208Z,10.15
2019-05-21T07:58:49.351Z,9.00
2019-05-21T08:01:17.796Z,7.33
2019-05-21T08:03:45.856Z,9.85
2019-05-21T08:06:15.066Z,9.23
2019-05-21T08:08:43.667Z,11.53
2019-05-21T08:11:11.987Z,7.45
2019-05-21T08:13:40.038Z,12.53
2019-05-21T08:16:37.504Z,8.00
2019-05-21T08:21:09.261Z,11.55
2019-05-21T08:28:24.974Z,13.03
2019-05-21T08:30:55.533Z,9.28
2019-05-21T10:08:32.419Z,8.20
2019-05-21T10:13:04.991Z,14.95
2019-05-21T10:15:51.963Z,14.87
2019-05-21T10:45:28.794Z,18.35
2019-05-21T10:50:28.785Z,19.70
2019-05-21T10:53:16.729Z,9.23
2019-05-21T10:55:44.755Z,8.38
2019-05-21T10:58:12.764Z,6.22
2019-05-21T11:00:41.443Z,5.67
2019-05-21T11:03:23.248Z,8.00
2019-05-21T11:06:09.167Z,9.35
2019-05-21T11:08:25.251Z,5.33
2019-05-21T11:10:53.895Z,5.25
2019-05-21T11:13:24.564Z,5.50
2019-05-21T11:15:52.585Z,9.68
2019-05-21T11:18:21.049Z,7.70
2019-05-21T11:20:49.008Z,5.75
2019-05-21T11:23:17.290Z,12.03
2019-05-21T11:25:45.201Z,10.30
2019-05-21T11:28:13.216Z,7.10
2019-05-21T11:30:41.202Z,6.58
2019-05-21T11:33:09.360Z,6.28
2019-05-21T11:35:37.364Z,6.22
2019-05-21T11:38:05.711Z,5.78
2019-05-21T11:40:34.025Z,4.58
2019-05-21T11:43:02.155Z,4.53
2019-05-21T11:45:32.642Z,4.17
2019-05-21T11:48:00.119Z,7.72
2019-05-21T11:50:28.505Z,5.33
2019-05-21T11:52:56.453Z,3.55
2019-05-21T11:55:27.754Z,5.62
2019-05-21T11:57:55.623Z,5.92
2019-05-21T12:00:26.182Z,4.55
2019-05-21T12:02:54.201Z,6.80
2019-05-21T12:05:22.733Z,7.00
2019-05-21T12:07:50.724Z,4.92
2019-05-21T12:10:19.131Z,6.30
2019-05-21T12:12:47.327Z,7.42
2019-05-21T12:15:15.895Z,7.37
2019-05-21T12:17:43.863Z,5.22
2019-05-21T12:20:14.369Z,6.45
2019-05-21T12:22:42.572Z,8.08
2019-05-21T12:25:11.517Z,6.10
2019-05-21T12:27:40.783Z,5.17
2019-05-21T12:30:10.373Z,5.25
2019-05-21T12:32:38.463Z,4.65
2019-05-21T12:35:07.931Z,4.80
2019-05-21T12:37:36.504Z,6.28
2019-05-21T12:40:06.909Z,6.85
2019-05-21T12:42:35.528Z,6.30
2019-05-21T12:45:06.328Z,5.45
2019-05-21T12:47:34.784Z,9.33
2019-05-21T12:50:04.278Z,6.90
2019-05-21T12:52:33.907Z,6.20
2019-05-21T12:55:03.768Z,7.08
2019-05-21T12:57:32.478Z,6.42
2019-05-21T13:00:01.299Z,7.28
2019-05-21T13:02:30.457Z,5.28
2019-05-21T13:04:58.478Z,7.37
2019-05-21T13:07:26.427Z,8.65
2019-05-21T13:09:54.581Z,10.40
2019-05-21T13:12:23.120Z,10.65
2019-05-21T13:14:51.438Z,11.80
2019-05-21T13:17:19.492Z,12.13
2019-05-21T13:19:47.720Z,11.60
2019-05-21T13:22:16.013Z,9.43
2019-05-21T13:24:44.193Z,11.57
2019-05-21T13:27:12.078Z,10.65
2019-05-21T13:29:40.333Z,9.18
2019-05-21T13:32:08.535Z,8.55
2019-05-21T13:34:36.605Z,9.33
2019-05-21T13:37:04.675Z,9.73
2019-05-21T13:39:48.920Z,6.58
2019-05-21T13:42:04.920Z,7.28
2019-05-21T13:44:33.598Z,4.75
2019-05-21T13:47:02.983Z,5.40
2019-05-21T13:49:31.151Z,5.75
2019-05-21T13:51:59.490Z,4.85
2019-05-21T13:54:27.686Z,5.60
2019-05-21T13:56:55.597Z,5.50
2019-05-21T13:59:24.020Z,4.83
2019-05-21T14:01:52.276Z,6.28
2019-05-21T14:04:21.229Z,6.75
2019-05-21T14:06:49.479Z,6.50
2019-05-21T14:09:17.601Z,6.80
2019-05-21T14:11:46.043Z,7.65
2019-05-21T14:14:14.562Z,8.08
2019-05-21T14:16:42.745Z,7.42
2019-05-21T14:19:10.714Z,6.53
2019-05-21T14:21:39.193Z,6.75
2019-05-21T14:24:07.537Z,6.22
2019-05-21T14:26:35.676Z,8.28
2019-05-21T14:29:04.019Z,8.58
2019-05-21T14:31:32.182Z,9.70
2019-05-21T14:34:00.317Z,8.93
2019-05-21T14:36:28.695Z,10.25
2019-05-21T14:38:56.631Z,10.08
2019-05-21T14:41:24.632Z,9.73
2019-05-21T14:43:52.755Z,10.30
2019-05-21T14:46:21.384Z,10.18
2019-05-21T14:48:49.512Z,11.20
2019-05-21T14:51:17.806Z,13.60
2019-05-21T14:53:46.505Z,13.70
2019-05-21T14:56:14.479Z,15.43
2019-05-21T14:58:42.614Z,13.80
2019-05-21T15:01:11.325Z,15.35
2019-05-21T15:03:39.344Z,19.00
2019-05-21T15:06:07.441Z,20.32
2019-05-21T15:08:36.149Z,18.17
2019-05-21T15:11:04.129Z,21.27
2019-05-21T15:13:32.297Z,30.15
2019-05-21T15:16:00.418Z,27.27
2019-05-21T15:18:28.536Z,32.98
2019-05-21T15:21:01.556Z,28.50
2019-05-21T15:23:29.690Z,33.05
2019-05-21T15:25:58.150Z,38.63
2019-05-21T15:28:26.831Z,32.73
2019-05-21T15:30:54.935Z,29.00
2019-05-21T15:33:23.015Z,22.87
2019-05-21T15:35:51.352Z,24.47
2019-05-21T15:38:19.282Z,18.67
2019-05-21T15:40:47.265Z,15.85
2019-05-21T15:43:15.682Z,16.30
2019-05-21T15:45:43.739Z,13.72
2019-05-21T15:48:12.012Z,10.08
2019-05-21T15:50:40.119Z,11.75
2019-05-21T15:53:08.169Z,9.13
2019-05-21T15:55:36.234Z,11.03
2019-05-21T15:58:04.332Z,10.15
2019-05-21T16:00:32.338Z,12.05
2019-05-21T16:03:00.486Z,14.35
2019-05-21T16:05:29.020Z,12.28
2019-05-21T16:07:56.981Z,19.07
2019-05-21T16:10:25.248Z,19.57
2019-05-21T16:12:54.229Z,14.13
2019-05-21T16:15:22.895Z,15.45
2019-05-21T16:17:51.273Z,16.93
2019-05-21T16:20:19.370Z,17.42
2019-05-21T16:22:47.408Z,17.30
2019-05-21T16:25:16.089Z,20.52
2019-05-21T16:27:44.455Z,17.37
2019-05-21T16:30:13.084Z,19.00
2019-05-21T16:32:41.202Z,18.35
2019-05-21T16:35:10.799Z,17.27
2019-05-21T16:37:38.939Z,21.93
2019-05-21T16:40:08.373Z,17.62
2019-05-21T16:42:36.490Z,22.27
2019-05-21T16:45:05.715Z,19.45
2019-05-21T16:47:44.305Z,19.62
2019-05-21T16:50:05.449Z,22.17
2019-05-21T16:52:33.664Z,17.70
2019-05-21T16:55:02.032Z,22.27
2019-05-21T16:57:30.543Z,20.12
2019-05-21T16:59:58.592Z,23.40
2019-05-21T17:02:26.697Z,24.30
2019-05-21T17:04:55.273Z,27.67
2019-05-21T17:07:23.284Z,27.58
2019-05-21T17:09:51.507Z,27.93
2019-05-21T17:12:19.593Z,30.85
2019-05-21T17:14:49.956Z,32.75
2019-05-21T17:17:17.881Z,33.75
2019-05-21T17:19:46.528Z,28.55
2019-05-21T17:22:17.032Z,37.15
2019-05-21T17:24:45.042Z,27.00
2019-05-21T17:27:13.203Z,29.30
2019-05-21T17:29:41.984Z,23.07
2019-05-21T17:32:10.429Z,22.58
2019-05-21T17:34:38.662Z,23.38
2019-05-21T17:37:07.305Z,19.07
2019-05-21T17:39:35.799Z,16.02
2019-05-21T17:42:15.086Z,19.92
2019-05-21T17:44:35.023Z,15.40
2019-05-21T17:47:04.017Z,16.05
2019-05-21T17:49:32.149Z,19.00
2019-05-21T17:52:01.725Z,16.62
2019-05-21T17:54:30.280Z,22.45
2019-05-21T17:56:58.292Z,21.05
2019-05-21T17:59:26.934Z,20.82
2019-05-21T18:01:55.229Z,21.57
2019-05-21T18:04:25.458Z,18.07
2019-05-21T18:06:53.565Z,20.60
2019-05-21T18:09:23.081Z,19.57
2019-05-21T18:11:51.165Z,18.87
2019-05-21T18:14:20.439Z,17.00
2019-05-21T18:16:48.476Z,15.72
2019-05-21T18:19:16.639Z,21.27
2019-05-21T18:21:45.264Z,16.45
2019-05-21T18:24:13.575Z,15.95
2019-05-21T18:26:41.683Z,21.70
2019-05-21T18:29:09.915Z,20.20
2019-05-21T18:31:38.155Z,19.95
2019-05-21T18:34:06.164Z,21.15
2019-05-21T18:36:34.713Z,20.55
2019-05-21T18:39:05.097Z,21.20
2019-05-21T18:41:33.354Z,20.32
2019-05-21T18:44:01.533Z,20.75
2019-05-21T18:46:29.768Z,20.65
2019-05-21T18:48:58.015Z,20.48
2019-05-21T18:51:26.517Z,18.95
2019-05-21T18:53:54.580Z,15.68
2019-05-21T18:56:22.931Z,17.10
2019-05-21T18:58:51.332Z,16.10
2019-05-21T19:01:19.999Z,16.17
2019-05-21T19:03:49.480Z,14.03
2019-05-21T19:06:17.638Z,13.55
2019-05-21T19:08:45.756Z,15.30
2019-05-21T19:11:14.114Z,15.93
2019-05-21T19:13:42.245Z,14.85
2019-05-21T19:16:12.379Z,12.00
2019-05-21T19:18:40.574Z,16.93
2019-05-21T19:21:10.648Z,18.15
2019-05-21T19:23:39.152Z,14.30
2019-05-21T19:26:07.726Z,15.08
2019-05-21T19:28:36.009Z,16.50
2019-05-21T19:31:04.280Z,19.77
2019-05-21T19:33:32.332Z,16.62
2019-05-21T19:36:00.539Z,15.80
2019-05-21T19:38:29.041Z,16.93
2019-05-21T19:40:57.532Z,20.48
2019-05-21T19:43:36.016Z,21.70
2019-05-21T19:46:04.072Z,16.30
2019-05-21T19:48:34.383Z,18.40
2019-05-21T19:51:02.518Z,13.68
2019-05-21T19:53:30.659Z,16.97
2019-05-21T19:55:59.379Z,16.50
2019-05-21T19:58:29.898Z,18.37
2019-05-21T20:00:59.000Z,19.90
2019-05-21T20:03:28.607Z,19.55
2019-05-21T20:05:58.610Z,20.12
2019-05-21T20:08:27.811Z,25.27
2019-05-21T20:10:56.718Z,19.90
2019-05-21T20:13:32.678Z,19.73
2019-05-21T20:15:58.372Z,23.57
2019-05-21T20:18:26.411Z,23.80
2019-05-21T20:20:56.089Z,20.97
2019-05-21T20:23:24.691Z,24.63
2019-05-21T20:25:56.662Z,22.10
2019-05-21T20:28:23.868Z,21.45
2019-05-21T20:30:52.367Z,27.80
2019-05-21T20:33:20.491Z,24.72
2019-05-21T20:35:48.992Z,24.02
2019-05-21T20:38:17.987Z,23.70
2019-05-21T20:40:46.109Z,28.98
2019-05-21T20:43:14.253Z,30.82
2019-05-21T20:45:45.035Z,27.45
2019-05-21T20:48:15.691Z,25.00
2019-05-21T20:50:44.910Z,27.82
2019-05-21T20:53:13.698Z,29.00
2019-05-21T20:55:41.621Z,26.12
2019-05-21T20:58:09.926Z,27.62
2019-05-21T21:00:45.780Z,29.92
2019-05-21T21:03:14.779Z,32.80
2019-05-21T21:05:43.612Z,26.97
2019-05-21T21:08:13.601Z,30.32
2019-05-21T21:10:42.195Z,29.23
2019-05-21T21:13:13.638Z,29.77
2019-05-21T21:15:42.512Z,30.68
2019-05-21T21:18:10.456Z,30.77
2019-05-21T21:20:38.778Z,27.85
2019-05-21T21:23:07.118Z,34.53
2019-05-21T21:25:35.096Z,33.25
2019-05-21T21:28:03.371Z,31.60
2019-05-21T21:30:32.228Z,32.17
2019-05-21T21:33:01.193Z,30.70
2019-05-21T21:35:30.816Z,30.95
2019-05-21T21:38:01.352Z,27.30
2019-05-21T21:40:29.964Z,29.77
2019-05-21T21:43:01.698Z,32.85
2019-05-21T21:45:29.558Z,29.77
2019-05-21T21:47:57.643Z,29.57
2019-05-21T21:50:27.430Z,31.85
2019-05-21T21:52:56.427Z,29.98
2019-05-21T21:55:24.311Z,33.58
2019-05-21T21:57:52.600Z,31.73
2019-05-21T22:01:23.381Z,39.13
2019-05-21T22:03:51.878Z,35.70
2019-05-21T22:06:23.112Z,33.73
2019-05-21T22:08:51.473Z,33.38
2019-05-21T22:11:19.714Z,41.70
2019-05-21T22:13:49.242Z,33.23
2019-05-21T22:16:17.603Z,35.40
2019-05-21T22:18:46.408Z,36.15
2019-05-21T22:21:15.296Z,38.75
2019-05-21T22:23:43.835Z,35.75
2019-05-21T22:26:12.235Z,42.43
2019-05-21T22:28:40.256Z,35.13
2019-05-21T22:31:08.176Z,43.63
2019-05-21T22:33:36.558Z,38.40
2019-05-21T22:36:06.208Z,31.05
2019-05-21T22:38:34.237Z,34.38
2019-05-21T22:41:02.299Z,35.83
2019-05-21T22:43:31.222Z,35.75
2019-05-21T22:46:00.496Z,34.55
2019-05-21T22:48:28.543Z,34.35
2019-05-21T22:50:56.598Z,38.10
2019-05-21T22:53:24.679Z,39.92
2019-05-21T22:55:52.820Z,33.90
2019-05-21T22:58:22.337Z,38.78
2019-05-21T23:00:51.070Z,42.58
2019-05-21T23:03:19.071Z,40.00
2019-05-21T23:05:47.376Z,38.55
2019-05-21T23:08:16.918Z,39.03
2019-05-21T23:10:44.979Z,38.15
2019-05-21T23:13:13.130Z,38.98
2019-05-21T23:15:41.205Z,40.78
2019-05-21T23:18:09.361Z,39.23
2019-05-21T23:20:37.896Z,38.20
2019-05-21T23:23:07.093Z,41.20
2019-05-21T23:25:38.012Z,42.58
2019-05-21T23:28:06.628Z,41.70
2019-05-21T23:30:35.053Z,42.30
2019-05-21T23:33:03.844Z,44.05
2019-05-21T23:35:32.131Z,42.33
2019-05-21T23:38:00.902Z,44.23
2019-05-21T23:40:29.512Z,45.78
2019-05-21T23:42:57.587Z,43.80
2019-05-21T23:45:25.520Z,43.38
2019-05-21T23:47:53.360Z,46.25
2019-05-21T23:50:21.442Z,40.45
2019-05-21T23:52:50.415Z,42.35
2019-05-21T23:55:18.414Z,46.42
2019-05-21T23:57:46.437Z,42.25
